sensor_id;sensor_type;location;lat;lon;timestamp;pressure;altitude;pressure_sealevel;temperature;humidity
75788;BME280;64406;50.024;14.492;2024-03-06T00:01:43;98007.97;;;6.12;85.82
75788;BME280;64406;50.024;14.492;2024-03-06T00:04:09;98008.00;;;6.17;86.69
75788;BME280;64406;50.024;14.492;2024-03-06T00:06:35;98008.91;;;6.28;85.72
75788;BME280;64406;50.024;14.492;2024-03-06T00:09:00;98014.97;;;6.18;85.95
75788;BME280;64406;50.024;14.492;2024-03-06T00:11:28;98010.03;;;6.37;84.90
75788;BME280;64406;50.024;14.492;2024-03-06T00:13:53;98018.09;;;6.42;84.22
75788;BME280;64406;50.024;14.492;2024-03-06T00:16:19;98014.34;;;6.43;84.69
75788;BME280;64406;50.024;14.492;2024-03-06T00:18:45;98012.94;;;6.31;84.38
75788;BME280;64406;50.024;14.492;2024-03-06T00:21:11;98022.59;;;6.37;84.88
75788;BME280;64406;50.024;14.492;2024-03-06T00:23:37;98024.06;;;6.17;85.97
75788;BME280;64406;50.024;14.492;2024-03-06T00:26:03;98022.94;;;6.13;85.81
75788;BME280;64406;50.024;14.492;2024-03-06T00:28:29;98027.19;;;6.09;86.14
75788;BME280;64406;50.024;14.492;2024-03-06T00:30:55;98027.94;;;6.05;86.33
75788;BME280;64406;50.024;14.492;2024-03-06T00:33:20;98032.44;;;5.99;86.76
75788;BME280;64406;50.024;14.492;2024-03-06T00:35:46;98027.03;;;5.94;87.30
75788;BME280;64406;50.024;14.492;2024-03-06T00:38:12;98028.84;;;5.88;87.86
75788;BME280;64406;50.024;14.492;2024-03-06T00:40:38;98033.13;;;5.89;87.50
75788;BME280;64406;50.024;14.492;2024-03-06T00:43:04;98026.94;;;5.84;87.46
75788;BME280;64406;50.024;14.492;2024-03-06T00:45:30;98035.41;;;5.76;87.81
75788;BME280;64406;50.024;14.492;2024-03-06T00:47:55;98039.16;;;5.75;88.09
75788;BME280;64406;50.024;14.492;2024-03-06T00:50:21;98041.91;;;5.85;87.44
75788;BME280;64406;50.024;14.492;2024-03-06T00:52:47;98037.75;;;5.72;88.47
75788;BME280;64406;50.024;14.492;2024-03-06T00:55:14;98044.44;;;5.69;88.63
75788;BME280;64406;50.024;14.492;2024-03-06T00:57:39;98035.97;;;5.78;88.18
75788;BME280;64406;50.024;14.492;2024-03-06T01:00:06;98032.28;;;5.84;88.02
75788;BME280;64406;50.024;14.492;2024-03-06T01:02:38;98035.06;;;5.94;88.01
75788;BME280;64406;50.024;14.492;2024-03-06T01:05:04;98031.84;;;5.92;88.15
75788;BME280;64406;50.024;14.492;2024-03-06T01:07:30;98036.50;;;6.02;87.19
75788;BME280;64406;50.024;14.492;2024-03-06T01:09:57;98038.38;;;6.01;87.11
75788;BME280;64406;50.024;14.492;2024-03-06T01:12:26;98035.94;;;5.99;87.16
75788;BME280;64406;50.024;14.492;2024-03-06T01:14:52;98023.94;;;6.02;87.05
75788;BME280;64406;50.024;14.492;2024-03-06T01:17:17;98041.59;;;6.03;87.36
75788;BME280;64406;50.024;14.492;2024-03-06T01:19:43;98038.38;;;6.01;86.77
75788;BME280;64406;50.024;14.492;2024-03-06T01:22:09;98032.66;;;5.92;86.85
75788;BME280;64406;50.024;14.492;2024-03-06T01:24:35;98036.19;;;5.98;87.14
75788;BME280;64406;50.024;14.492;2024-03-06T01:27:00;98033.94;;;5.90;88.21
75788;BME280;64406;50.024;14.492;2024-03-06T01:29:28;98042.44;;;5.87;87.82
75788;BME280;64406;50.024;14.492;2024-03-06T01:31:54;98039.22;;;5.85;87.24
75788;BME280;64406;50.024;14.492;2024-03-06T01:34:20;98043.50;;;5.86;87.32
75788;BME280;64406;50.024;14.492;2024-03-06T01:36:46;98052.81;;;5.78;87.23
75788;BME280;64406;50.024;14.492;2024-03-06T01:39:11;98048.25;;;5.79;87.57
75788;BME280;64406;50.024;14.492;2024-03-06T01:41:37;98049.31;;;5.78;88.16
75788;BME280;64406;50.024;14.492;2024-03-06T01:44:03;98054.94;;;5.76;88.02
75788;BME280;64406;50.024;14.492;2024-03-06T01:46:29;98045.53;;;5.73;87.68
75788;BME280;64406;50.024;14.492;2024-03-06T01:48:55;98054.06;;;5.70;88.19
75788;BME280;64406;50.024;14.492;2024-03-06T01:51:21;98047.31;;;5.63;88.92
75788;BME280;64406;50.024;14.492;2024-03-06T01:53:47;98053.53;;;5.73;88.33
75788;BME280;64406;50.024;14.492;2024-03-06T01:56:13;98057.66;;;5.59;89.54
75788;BME280;64406;50.024;14.492;2024-03-06T01:58:45;98054.31;;;5.69;89.17
75788;BME280;64406;50.024;14.492;2024-03-06T02:01:11;98052.38;;;5.64;88.93
75788;BME280;64406;50.024;14.492;2024-03-06T02:03:38;98061.94;;;5.60;89.67
75788;BME280;64406;50.024;14.492;2024-03-06T02:06:04;98059.09;;;5.67;89.51
75788;BME280;64406;50.024;14.492;2024-03-06T02:08:30;98052.84;;;5.56;90.25
75788;BME280;64406;50.024;14.492;2024-03-06T02:10:56;98060.59;;;5.58;90.21
75788;BME280;64406;50.024;14.492;2024-03-06T02:13:21;98056.31;;;5.57;90.70
75788;BME280;64406;50.024;14.492;2024-03-06T02:15:47;98060.06;;;5.56;90.85
75788;BME280;64406;50.024;14.492;2024-03-06T02:18:13;98058.53;;;5.65;91.28
75788;BME280;64406;50.024;14.492;2024-03-06T02:20:39;98052.44;;;5.69;90.95
75788;BME280;64406;50.024;14.492;2024-03-06T02:23:08;98065.00;;;5.69;90.30
75788;BME280;64406;50.024;14.492;2024-03-06T02:25:33;98064.75;;;5.70;90.32
75788;BME280;64406;50.024;14.492;2024-03-06T02:27:59;98058.84;;;5.68;90.75
75788;BME280;64406;50.024;14.492;2024-03-06T02:30:24;98058.00;;;5.63;90.31
75788;BME280;64406;50.024;14.492;2024-03-06T02:32:50;98067.91;;;5.67;90.41
75788;BME280;64406;50.024;14.492;2024-03-06T02:35:16;98063.00;;;5.59;90.26
75788;BME280;64406;50.024;14.492;2024-03-06T02:37:43;98068.28;;;5.54;90.67
75788;BME280;64406;50.024;14.492;2024-03-06T02:40:09;98060.84;;;5.56;90.54
75788;BME280;64406;50.024;14.492;2024-03-06T02:42:36;98073.59;;;5.49;90.68
75788;BME280;64406;50.024;14.492;2024-03-06T02:45:05;98075.50;;;5.54;90.54
75788;BME280;64406;50.024;14.492;2024-03-06T02:47:31;98086.16;;;5.49;91.18
75788;BME280;64406;50.024;14.492;2024-03-06T02:49:56;98085.34;;;5.48;91.27
75788;BME280;64406;50.024;14.492;2024-03-06T02:52:22;98085.03;;;5.44;90.87
75788;BME280;64406;50.024;14.492;2024-03-06T02:54:47;98079.34;;;5.41;90.54
75788;BME280;64406;50.024;14.492;2024-03-06T02:57:13;98079.31;;;5.36;90.72
75788;BME280;64406;50.024;14.492;2024-03-06T02:59:42;98086.75;;;5.34;90.72
75788;BME280;64406;50.024;14.492;2024-03-06T03:02:08;98081.47;;;5.39;90.42
75788;BME280;64406;50.024;14.492;2024-03-06T03:04:34;98088.56;;;5.28;90.53
75788;BME280;64406;50.024;14.492;2024-03-06T03:06:59;98084.69;;;5.19;91.16
75788;BME280;64406;50.024;14.492;2024-03-06T03:09:25;98083.09;;;5.18;91.42
75788;BME280;64406;50.024;14.492;2024-03-06T03:11:51;98080.53;;;5.06;91.91
75788;BME280;64406;50.024;14.492;2024-03-06T03:14:16;98089.31;;;5.24;91.28
75788;BME280;64406;50.024;14.492;2024-03-06T03:16:42;98079.25;;;5.31;90.19
75788;BME280;64406;50.024;14.492;2024-03-06T03:19:08;98088.81;;;5.27;90.33
75788;BME280;64406;50.024;14.492;2024-03-06T03:21:34;98086.88;;;5.22;90.09
75788;BME280;64406;50.024;14.492;2024-03-06T03:23:59;98088.75;;;5.22;89.99
75788;BME280;64406;50.024;14.492;2024-03-06T03:26:25;98092.78;;;5.24;89.39
75788;BME280;64406;50.024;14.492;2024-03-06T03:28:51;98095.63;;;5.17;89.20
75788;BME280;64406;50.024;14.492;2024-03-06T03:31:17;98102.25;;;5.15;89.58
75788;BME280;64406;50.024;14.492;2024-03-06T03:33:42;98086.81;;;5.17;89.43
75788;BME280;64406;50.024;14.492;2024-03-06T03:36:08;98098.38;;;5.23;89.32
75788;BME280;64406;50.024;14.492;2024-03-06T03:38:38;98101.59;;;5.25;88.93
75788;BME280;64406;50.024;14.492;2024-03-06T03:41:10;98101.78;;;5.18;88.91
75788;BME280;64406;50.024;14.492;2024-03-06T03:43:36;98099.44;;;5.22;89.40
75788;BME280;64406;50.024;14.492;2024-03-06T03:46:02;98100.25;;;5.22;89.20
75788;BME280;64406;50.024;14.492;2024-03-06T03:48:29;98097.31;;;5.24;89.45
75788;BME280;64406;50.024;14.492;2024-03-06T03:50:55;98103.47;;;5.24;89.52
75788;BME280;64406;50.024;14.492;2024-03-06T03:53:21;98105.41;;;5.29;89.18
75788;BME280;64406;50.024;14.492;2024-03-06T03:55:46;98101.66;;;5.30;88.84
75788;BME280;64406;50.024;14.492;2024-03-06T03:58:12;98101.34;;;5.26;89.01
75788;BME280;64406;50.024;14.492;2024-03-06T04:00:38;98108.81;;;5.24;88.60
75788;BME280;64406;50.024;14.492;2024-03-06T04:03:03;98112.13;;;5.14;89.06
75788;BME280;64406;50.024;14.492;2024-03-06T04:05:29;98107.38;;;5.16;89.46
75788;BME280;64406;50.024;14.492;2024-03-06T04:07:55;98114.25;;;5.12;89.46
75788;BME280;64406;50.024;14.492;2024-03-06T04:10:21;98115.78;;;5.08;90.36
75788;BME280;64406;50.024;14.492;2024-03-06T04:12:46;98110.22;;;5.10;90.71
75788;BME280;64406;50.024;14.492;2024-03-06T04:15:12;98107.59;;;5.15;89.91
75788;BME280;64406;50.024;14.492;2024-03-06T04:17:37;98114.16;;;5.07;91.09
75788;BME280;64406;50.024;14.492;2024-03-06T04:20:03;98114.88;;;5.19;90.27
75788;BME280;64406;50.024;14.492;2024-03-06T04:22:31;98108.91;;;5.12;90.79
75788;BME280;64406;50.024;14.492;2024-03-06T04:24:57;98108.09;;;5.12;91.10
75788;BME280;64406;50.024;14.492;2024-03-06T04:27:24;98108.81;;;5.24;90.57
75788;BME280;64406;50.024;14.492;2024-03-06T04:29:50;98115.94;;;5.18;90.60
75788;BME280;64406;50.024;14.492;2024-03-06T04:32:16;98120.22;;;5.19;90.94
75788;BME280;64406;50.024;14.492;2024-03-06T04:34:42;98109.53;;;5.19;91.11
75788;BME280;64406;50.024;14.492;2024-03-06T04:37:07;98112.88;;;5.10;91.39
75788;BME280;64406;50.024;14.492;2024-03-06T04:39:33;98122.09;;;5.19;91.61
75788;BME280;64406;50.024;14.492;2024-03-06T04:41:58;98131.22;;;5.23;91.79
75788;BME280;64406;50.024;14.492;2024-03-06T04:44:24;98115.31;;;5.11;91.93
75788;BME280;64406;50.024;14.492;2024-03-06T04:46:50;98125.72;;;5.13;92.32
75788;BME280;64406;50.024;14.492;2024-03-06T04:49:16;98127.84;;;5.11;92.87
75788;BME280;64406;50.024;14.492;2024-03-06T04:51:41;98128.31;;;5.08;92.94
75788;BME280;64406;50.024;14.492;2024-03-06T04:54:07;98124.84;;;5.07;93.28
75788;BME280;64406;50.024;14.492;2024-03-06T04:56:33;98126.63;;;5.18;92.86
75788;BME280;64406;50.024;14.492;2024-03-06T04:59:00;98123.75;;;5.03;93.23
75788;BME280;64406;50.024;14.492;2024-03-06T05:01:29;98127.34;;;5.14;92.99
75788;BME280;64406;50.024;14.492;2024-03-06T05:03:54;98127.50;;;5.07;93.30
75788;BME280;64406;50.024;14.492;2024-03-06T05:06:22;98117.63;;;5.25;92.85
75788;BME280;64406;50.024;14.492;2024-03-06T05:08:48;98122.00;;;5.14;93.56
75788;BME280;64406;50.024;14.492;2024-03-06T05:11:13;98128.31;;;5.08;93.52
75788;BME280;64406;50.024;14.492;2024-03-06T05:13:39;98134.06;;;5.16;93.62
75788;BME280;64406;50.024;14.492;2024-03-06T05:16:05;98135.59;;;5.29;92.88
75788;BME280;64406;50.024;14.492;2024-03-06T05:18:31;98130.59;;;5.16;93.59
75788;BME280;64406;50.024;14.492;2024-03-06T05:20:56;98138.53;;;5.11;93.99
75788;BME280;64406;50.024;14.492;2024-03-06T05:23:22;98137.97;;;5.09;94.20
75788;BME280;64406;50.024;14.492;2024-03-06T05:25:48;98141.50;;;5.14;94.23
75788;BME280;64406;50.024;14.492;2024-03-06T05:28:14;98139.63;;;5.15;94.77
75788;BME280;64406;50.024;14.492;2024-03-06T05:30:39;98152.69;;;5.11;94.39
75788;BME280;64406;50.024;14.492;2024-03-06T05:33:05;98142.38;;;5.20;94.47
75788;BME280;64406;50.024;14.492;2024-03-06T05:35:30;98144.69;;;5.33;93.92
75788;BME280;64406;50.024;14.492;2024-03-06T05:37:56;98145.94;;;5.26;93.77
75788;BME280;64406;50.024;14.492;2024-03-06T05:40:22;98155.00;;;5.25;94.01
75788;BME280;64406;50.024;14.492;2024-03-06T05:42:47;98153.16;;;5.25;93.77
75788;BME280;64406;50.024;14.492;2024-03-06T05:45:13;98163.81;;;5.25;94.14
75788;BME280;64406;50.024;14.492;2024-03-06T05:47:39;98154.03;;;5.31;94.07
75788;BME280;64406;50.024;14.492;2024-03-06T05:50:08;98152.00;;;5.21;94.62
75788;BME280;64406;50.024;14.492;2024-03-06T05:52:36;98158.31;;;5.15;95.19
75788;BME280;64406;50.024;14.492;2024-03-06T05:55:02;98149.28;;;5.16;95.30
75788;BME280;64406;50.024;14.492;2024-03-06T05:57:28;98160.44;;;5.30;94.86
75788;BME280;64406;50.024;14.492;2024-03-06T05:59:53;98159.44;;;5.36;94.63
75788;BME280;64406;50.024;14.492;2024-03-06T06:02:20;98172.00;;;5.35;94.72
75788;BME280;64406;50.024;14.492;2024-03-06T06:04:46;98175.59;;;5.46;94.03
75788;BME280;64406;50.024;14.492;2024-03-06T06:07:11;98172.44;;;5.49;93.58
75788;BME280;64406;50.024;14.492;2024-03-06T06:09:37;98176.91;;;5.43;94.16
75788;BME280;64406;50.024;14.492;2024-03-06T06:12:03;98175.34;;;5.47;94.89
75788;BME280;64406;50.024;14.492;2024-03-06T06:14:28;98186.34;;;5.51;93.95
75788;BME280;64406;50.024;14.492;2024-03-06T06:16:56;98188.22;;;5.51;93.72
75788;BME280;64406;50.024;14.492;2024-03-06T06:19:22;98191.53;;;5.58;93.41
75788;BME280;64406;50.024;14.492;2024-03-06T06:21:47;98187.94;;;5.69;93.42
75788;BME280;64406;50.024;14.492;2024-03-06T06:24:13;98183.88;;;5.66;93.49
75788;BME280;64406;50.024;14.492;2024-03-06T06:26:39;98188.56;;;5.76;92.67
75788;BME280;64406;50.024;14.492;2024-03-06T06:29:05;98186.81;;;5.65;92.83
75788;BME280;64406;50.024;14.492;2024-03-06T06:31:30;98192.84;;;5.77;92.97
75788;BME280;64406;50.024;14.492;2024-03-06T06:33:56;98199.97;;;5.71;92.27
75788;BME280;64406;50.024;14.492;2024-03-06T06:36:23;98195.63;;;5.65;93.57
75788;BME280;64406;50.024;14.492;2024-03-06T06:38:48;98206.06;;;5.67;93.69
75788;BME280;64406;50.024;14.492;2024-03-06T06:41:15;98217.88;;;5.71;93.37
75788;BME280;64406;50.024;14.492;2024-03-06T06:43:41;98204.34;;;5.78;93.33
75788;BME280;64406;50.024;14.492;2024-03-06T06:46:07;98218.63;;;5.66;93.71
75788;BME280;64406;50.024;14.492;2024-03-06T06:48:33;98223.59;;;5.80;93.15
75788;BME280;64406;50.024;14.492;2024-03-06T06:51:00;98227.50;;;5.72;93.94
75788;BME280;64406;50.024;14.492;2024-03-06T06:53:30;98217.69;;;5.78;93.47
75788;BME280;64406;50.024;14.492;2024-03-06T06:55:57;98231.13;;;5.83;93.03
75788;BME280;64406;50.024;14.492;2024-03-06T06:58:24;98220.53;;;5.88;92.90
75788;BME280;64406;50.024;14.492;2024-03-06T07:00:50;98219.75;;;5.70;92.76
75788;BME280;64406;50.024;14.492;2024-03-06T07:03:16;98225.34;;;5.69;93.69
75788;BME280;64406;50.024;14.492;2024-03-06T07:05:41;98236.59;;;5.71;93.44
75788;BME280;64406;50.024;14.492;2024-03-06T07:08:08;98226.25;;;5.58;93.89
75788;BME280;64406;50.024;14.492;2024-03-06T07:10:33;98243.66;;;5.60;94.62
75788;BME280;64406;50.024;14.492;2024-03-06T07:13:01;98236.91;;;5.75;93.89
75788;BME280;64406;50.024;14.492;2024-03-06T07:15:28;98240.59;;;5.52;93.81
75788;BME280;64406;50.024;14.492;2024-03-06T07:17:54;98242.50;;;5.73;93.78
75788;BME280;64406;50.024;14.492;2024-03-06T07:20:20;98240.69;;;5.79;93.28
75788;BME280;64406;50.024;14.492;2024-03-06T07:22:45;98245.50;;;5.77;92.78
75788;BME280;64406;50.024;14.492;2024-03-06T07:25:11;98251.50;;;5.67;92.94
75788;BME280;64406;50.024;14.492;2024-03-06T07:27:36;98249.53;;;5.79;92.96
75788;BME280;64406;50.024;14.492;2024-03-06T07:30:02;98238.75;;;5.91;92.04
75788;BME280;64406;50.024;14.492;2024-03-06T07:32:28;98257.44;;;6.08;90.18
75788;BME280;64406;50.024;14.492;2024-03-06T07:34:54;98254.44;;;6.04;89.43
75788;BME280;64406;50.024;14.492;2024-03-06T07:37:19;98253.88;;;6.02;89.51
75788;BME280;64406;50.024;14.492;2024-03-06T07:39:45;98267.63;;;6.11;88.78
75788;BME280;64406;50.024;14.492;2024-03-06T07:42:11;98263.69;;;6.18;88.32
75788;BME280;64406;50.024;14.492;2024-03-06T07:44:36;98260.47;;;6.16;89.03
75788;BME280;64406;50.024;14.492;2024-03-06T07:47:02;98265.81;;;6.16;88.46
75788;BME280;64406;50.024;14.492;2024-03-06T07:49:28;98269.38;;;6.22;87.67
75788;BME280;64406;50.024;14.492;2024-03-06T07:51:54;98278.91;;;6.40;87.61
75788;BME280;64406;50.024;14.492;2024-03-06T07:54:19;98275.06;;;6.31;86.68
75788;BME280;64406;50.024;14.492;2024-03-06T07:56:45;98282.78;;;6.27;87.06
75788;BME280;64406;50.024;14.492;2024-03-06T07:59:10;98283.84;;;6.48;86.38
75788;BME280;64406;50.024;14.492;2024-03-06T08:01:38;98292.22;;;6.57;85.58
75788;BME280;64406;50.024;14.492;2024-03-06T08:04:04;98287.44;;;6.59;85.64
75788;BME280;64406;50.024;14.492;2024-03-06T08:06:29;98287.63;;;6.74;85.21
75788;BME280;64406;50.024;14.492;2024-03-06T08:08:58;98296.94;;;6.71;84.98
75788;BME280;64406;50.024;14.492;2024-03-06T08:11:24;98290.22;;;6.69;84.68
75788;BME280;64406;50.024;14.492;2024-03-06T08:13:49;98291.53;;;6.66;85.06
75788;BME280;64406;50.024;14.492;2024-03-06T08:16:15;98288.84;;;6.66;84.64
75788;BME280;64406;50.024;14.492;2024-03-06T08:18:42;98294.38;;;6.81;85.00
75788;BME280;64406;50.024;14.492;2024-03-06T08:21:08;98298.94;;;6.86;85.00
75788;BME280;64406;50.024;14.492;2024-03-06T08:23:33;98303.69;;;7.01;83.43
75788;BME280;64406;50.024;14.492;2024-03-06T08:25:59;98300.22;;;7.05;84.12
75788;BME280;64406;50.024;14.492;2024-03-06T08:28:26;98298.28;;;7.28;82.98
75788;BME280;64406;50.024;14.492;2024-03-06T08:30:52;98299.69;;;7.35;82.04
75788;BME280;64406;50.024;14.492;2024-03-06T08:33:18;98296.25;;;7.45;82.63
75788;BME280;64406;50.024;14.492;2024-03-06T08:35:44;98311.03;;;7.48;81.26
75788;BME280;64406;50.024;14.492;2024-03-06T08:38:09;98300.75;;;7.72;80.35
75788;BME280;64406;50.024;14.492;2024-03-06T08:40:35;98301.44;;;7.94;79.01
75788;BME280;64406;50.024;14.492;2024-03-06T08:43:00;98306.84;;;8.04;79.37
75788;BME280;64406;50.024;14.492;2024-03-06T08:45:26;98296.41;;;8.08;78.38
75788;BME280;64406;50.024;14.492;2024-03-06T08:47:52;98312.00;;;8.16;78.96
75788;BME280;64406;50.024;14.492;2024-03-06T08:50:19;98305.56;;;8.17;78.22
75788;BME280;64406;50.024;14.492;2024-03-06T08:52:46;98302.41;;;8.30;78.09
75788;BME280;64406;50.024;14.492;2024-03-06T08:55:12;98296.69;;;8.11;78.51
75788;BME280;64406;50.024;14.492;2024-03-06T08:57:38;98303.13;;;8.10;77.81
75788;BME280;64406;50.024;14.492;2024-03-06T09:00:06;98299.94;;;7.71;79.82
75788;BME280;64406;50.024;14.492;2024-03-06T09:02:36;98298.06;;;7.02;82.11
75788;BME280;64406;50.024;14.492;2024-03-06T09:05:05;98295.06;;;6.99;83.84
75788;BME280;64406;50.024;14.492;2024-03-06T09:07:31;98287.16;;;6.82;84.02
75788;BME280;64406;50.024;14.492;2024-03-06T09:09:57;98298.41;;;7.11;83.18
75788;BME280;64406;50.024;14.492;2024-03-06T09:12:22;98296.09;;;7.25;81.47
75788;BME280;64406;50.024;14.492;2024-03-06T09:14:48;98298.25;;;7.23;82.53
75788;BME280;64406;50.024;14.492;2024-03-06T09:17:13;98312.78;;;7.32;82.36
75788;BME280;64406;50.024;14.492;2024-03-06T09:19:40;98298.34;;;7.38;81.95
75788;BME280;64406;50.024;14.492;2024-03-06T09:22:06;98300.31;;;7.48;81.25
75788;BME280;64406;50.024;14.492;2024-03-06T09:24:32;98306.41;;;7.75;80.16
75788;BME280;64406;50.024;14.492;2024-03-06T09:26:58;98295.03;;;8.05;78.60
75788;BME280;64406;50.024;14.492;2024-03-06T09:29:24;98304.28;;;8.30;78.06
75788;BME280;64406;50.024;14.492;2024-03-06T09:31:50;98293.75;;;8.76;76.14
75788;BME280;64406;50.024;14.492;2024-03-06T09:34:15;98307.53;;;9.05;74.57
75788;BME280;64406;50.024;14.492;2024-03-06T09:36:46;98299.19;;;9.16;73.33
75788;BME280;64406;50.024;14.492;2024-03-06T09:39:21;98309.34;;;8.89;74.22
75788;BME280;64406;50.024;14.492;2024-03-06T09:41:52;98306.94;;;8.97;73.68
75788;BME280;64406;50.024;14.492;2024-03-06T09:44:19;98310.41;;;8.78;74.04
75788;BME280;64406;50.024;14.492;2024-03-06T09:46:47;98310.41;;;8.78;73.64
75788;BME280;64406;50.024;14.492;2024-03-06T09:49:15;98308.53;;;8.83;74.16
75788;BME280;64406;50.024;14.492;2024-03-06T09:51:43;98319.06;;;9.10;71.56
75788;BME280;64406;50.024;14.492;2024-03-06T09:54:12;98316.75;;;8.46;72.99
75788;BME280;64406;50.024;14.492;2024-03-06T09:56:47;98315.78;;;8.15;75.53
75788;BME280;64406;50.024;14.492;2024-03-06T09:59:13;98324.00;;;8.03;75.95
75788;BME280;64406;50.024;14.492;2024-03-06T10:01:50;98312.88;;;8.27;76.36
75788;BME280;64406;50.024;14.492;2024-03-06T10:06:46;98314.72;;;8.84;71.29
75788;BME280;64406;50.024;14.492;2024-03-06T10:09:11;98316.66;;;9.14;69.98
75788;BME280;64406;50.024;14.492;2024-03-06T10:11:40;98314.53;;;9.46;68.86
75788;BME280;64406;50.024;14.492;2024-03-06T10:14:10;98320.19;;;9.65;66.26
75788;BME280;64406;50.024;14.492;2024-03-06T10:16:36;98324.50;;;9.46;67.07
75788;BME280;64406;50.024;14.492;2024-03-06T10:19:15;98313.97;;;9.24;68.59
75788;BME280;64406;50.024;14.492;2024-03-06T10:21:42;98320.97;;;9.20;69.21
75788;BME280;64406;50.024;14.492;2024-03-06T10:24:10;98327.63;;;8.97;70.53
75788;BME280;64406;50.024;14.492;2024-03-06T10:26:36;98320.59;;;8.76;71.22
75788;BME280;64406;50.024;14.492;2024-03-06T10:29:02;98317.97;;;9.01;69.83
75788;BME280;64406;50.024;14.492;2024-03-06T10:31:28;98326.88;;;9.12;69.97
75788;BME280;64406;50.024;14.492;2024-03-06T10:33:54;98322.59;;;9.21;68.19
75788;BME280;64406;50.024;14.492;2024-03-06T10:36:19;98320.97;;;9.20;67.90
75788;BME280;64406;50.024;14.492;2024-03-06T10:38:47;98320.31;;;8.67;69.65
75788;BME280;64406;50.024;14.492;2024-03-06T10:41:14;98323.38;;;9.37;68.30
75788;BME280;64406;50.024;14.492;2024-03-06T10:43:43;98326.88;;;9.63;68.05
75788;BME280;64406;50.024;14.492;2024-03-06T10:46:10;98330.66;;;9.57;67.07
75788;BME280;64406;50.024;14.492;2024-03-06T10:48:37;98323.41;;;9.47;67.57
75788;BME280;64406;50.024;14.492;2024-03-06T10:51:03;98321.50;;;9.68;65.88
75788;BME280;64406;50.024;14.492;2024-03-06T10:53:31;98313.47;;;9.52;65.82
75788;BME280;64406;50.024;14.492;2024-03-06T10:55:58;98326.34;;;9.56;67.12
75788;BME280;64406;50.024;14.492;2024-03-06T10:58:24;98318.56;;;9.39;67.87
75788;BME280;64406;50.024;14.492;2024-03-06T11:00:51;98327.97;;;9.41;66.71
75788;BME280;64406;50.024;14.492;2024-03-06T11:03:17;98319.91;;;9.36;68.14
75788;BME280;64406;50.024;14.492;2024-03-06T11:05:44;98322.34;;;9.53;67.43
75788;BME280;64406;50.024;14.492;2024-03-06T11:08:13;98328.25;;;9.24;68.15
75788;BME280;64406;50.024;14.492;2024-03-06T11:10:41;98323.16;;;9.38;67.09
75788;BME280;64406;50.024;14.492;2024-03-06T11:13:23;98320.16;;;9.35;65.96
75788;BME280;64406;50.024;14.492;2024-03-06T11:15:50;98311.81;;;9.77;64.81
75788;BME280;64406;50.024;14.492;2024-03-06T11:23:31;98314.28;;;9.38;66.89
75788;BME280;64406;50.024;14.492;2024-03-06T11:26:05;98319.66;;;9.33;67.09
75788;BME280;64406;50.024;14.492;2024-03-06T11:28:36;98310.97;;;8.95;67.07
75788;BME280;64406;50.024;14.492;2024-03-06T11:31:08;98309.63;;;8.87;68.29
75788;BME280;64406;50.024;14.492;2024-03-06T11:33:41;98312.53;;;8.70;69.46
75788;BME280;64406;50.024;14.492;2024-03-06T11:36:27;98308.78;;;8.77;68.76
75788;BME280;64406;50.024;14.492;2024-03-06T11:38:59;98311.81;;;9.06;67.96
75788;BME280;64406;50.024;14.492;2024-03-06T11:41:29;98312.66;;;9.26;66.74
75788;BME280;64406;50.024;14.492;2024-03-06T11:43:58;98311.31;;;9.44;65.36
75788;BME280;64406;50.024;14.492;2024-03-06T11:46:47;98302.16;;;9.61;63.55
75788;BME280;64406;50.024;14.492;2024-03-06T11:49:20;98305.09;;;9.79;62.75
75788;BME280;64406;50.024;14.492;2024-03-06T11:51:58;98304.53;;;9.93;62.22
75788;BME280;64406;50.024;14.492;2024-03-06T11:54:24;98298.56;;;10.26;63.86
75788;BME280;64406;50.024;14.492;2024-03-06T11:56:55;98312.59;;;9.98;63.87
75788;BME280;64406;50.024;14.492;2024-03-06T11:59:31;98301.28;;;9.96;73.35
75788;BME280;64406;50.024;14.492;2024-03-06T12:01:59;98300.78;;;10.74;72.62
75788;BME280;64406;50.024;14.492;2024-03-06T12:04:30;98299.06;;;10.88;62.48
75788;BME280;64406;50.024;14.492;2024-03-06T12:06:57;98300.38;;;10.46;64.59
75788;BME280;64406;50.024;14.492;2024-03-06T12:09:25;98299.88;;;10.29;63.13
75788;BME280;64406;50.024;14.492;2024-03-06T12:11:52;98308.00;;;10.03;61.44
75788;BME280;64406;50.024;14.492;2024-03-06T12:14:19;98309.16;;;9.62;65.02
75788;BME280;64406;50.024;14.492;2024-03-06T12:16:58;98299.66;;;10.05;62.53
75788;BME280;64406;50.024;14.492;2024-03-06T12:19:27;98300.97;;;10.23;61.14
75788;BME280;64406;50.024;14.492;2024-03-06T12:21:53;98294.91;;;10.61;65.38
75788;BME280;64406;50.024;14.492;2024-03-06T12:24:19;98287.19;;;11.28;69.54
75788;BME280;64406;50.024;14.492;2024-03-06T12:26:57;98290.00;;;11.52;74.75
75788;BME280;64406;50.024;14.492;2024-03-06T12:29:23;98292.56;;;11.33;57.45
75788;BME280;64406;50.024;14.492;2024-03-06T12:31:48;98282.47;;;11.49;58.02
75788;BME280;64406;50.024;14.492;2024-03-06T12:34:15;98282.91;;;11.27;59.28
75788;BME280;64406;50.024;14.492;2024-03-06T12:36:51;98286.84;;;11.06;57.54
75788;BME280;64406;50.024;14.492;2024-03-06T12:39:17;98278.91;;;10.80;58.10
75788;BME280;64406;50.024;14.492;2024-03-06T12:41:47;98282.09;;;10.43;57.66
75788;BME280;64406;50.024;14.492;2024-03-06T12:44:13;98278.66;;;10.17;59.34
75788;BME280;64406;50.024;14.492;2024-03-06T12:46:38;98280.50;;;10.37;59.12
75788;BME280;64406;50.024;14.492;2024-03-06T12:49:04;98283.72;;;10.29;59.55
75788;BME280;64406;50.024;14.492;2024-03-06T12:51:29;98284.06;;;10.02;59.15
75788;BME280;64406;50.024;14.492;2024-03-06T12:53:55;98269.72;;;10.37;58.59
75788;BME280;64406;50.024;14.492;2024-03-06T12:56:21;98274.44;;;9.80;59.46
75788;BME280;64406;50.024;14.492;2024-03-06T12:58:46;98273.34;;;10.61;58.56
75788;BME280;64406;50.024;14.492;2024-03-06T13:01:12;98271.31;;;10.43;56.61
75788;BME280;64406;50.024;14.492;2024-03-06T13:03:37;98268.25;;;10.60;56.56
75788;BME280;64406;50.024;14.492;2024-03-06T13:06:09;98261.69;;;10.12;57.30